West Glens Falls, New York
Current Conditions -  °F | °C
As of 10:53 AM on Friday 24 Oct 2014 (Local Time) from KGFL Reporting Station
Overcast Overcast  
Wind Chill: 45°   Ceiling: 1100
Heat Index: 45°   Visibility: 8mi
Dew Point: 42°   Wind: 3mph
Humidity: 90%   Direction: 150°SSE
Pressure: 29.85"   Gusts: NA
Location:  43.3117°N, 73.645°W
Report Text: KGFL 241453Z AUTO 15003KT 8SM FEW004 BKN011 OVC016 07/06 A2985 RMK AO2 CIG 007V013 SLP113 60003 T00720056 58001
Loading
Personal Weather Stations






























Interactive Weather Map
Tropical Storm Tracking
New forecast layout! Learn more

10-Day Weather Forecast

Advertisements
Track Severe Weather on mobile